Stations météo

réclame
Mon MeteoGroup
Karlsruhe/Baden-Baden, Allemagne (10722): Température de l'air & dewpoint: 17.04.2018 04:00:00 - 23.04.2018 04:00:00 (CEST)Karlsruhe/Baden-Baden, Allemagne (10722): Vitesse du vent: 17.04.2018 04:00:00 - 23.04.2018 04:00:00 (CEST)Karlsruhe/Baden-Baden, Allemagne (10722): Direction du vent: 17.04.2018 04:00:00 - 23.04.2018 04:00:00 (CEST)Karlsruhe/Baden-Baden, Allemagne (10722): visibility: 17.04.2018 04:00:00 - 23.04.2018 04:00:00 (CEST)
Date & Time tt [°C] td [°C] ff [km/h] ff [knt] dd vv [km]
23.04.2018 04:00:00 - - - - - -
23.04.2018 03:00:00 18,0 8,0 9 5 SSW 10
23.04.2018 02:00:00 19,0 7,0 9 5 SW 10
23.04.2018 01:00:00 19,0 7,0 9 5 SSW 10
23.04.2018 00:00:00 20,0 6,0 11 6 SW 10
22.04.2018 23:00:00 20,0 5,0 9 5 S 10
22.04.2018 22:00:00 22,0 5,0 8 4 S 10
22.04.2018 21:00:00 22,0 7,0 8 4 SSE 10
22.04.2018 20:00:00 25,0 6,0 9 5 W 10
22.04.2018 19:00:00 26,0 6,0 13 7 W 10
22.04.2018 18:00:00 27,0 9,0 9 5 W 10
22.04.2018 17:00:00 29,0 8,0 16 9 SW 10
22.04.2018 16:00:00 29,0 7,0 9 5 WSW 10
22.04.2018 15:00:00 29,0 10,0 16 9 SSW 10
22.04.2018 14:00:00 27,0 10,0 11 6 SSW 10
22.04.2018 13:00:00 26,0 10,0 13 7 SW 10
22.04.2018 12:00:00 24,0 11,0 11 6 SW 10
22.04.2018 11:00:00 22,0 12,0 13 7 SW 10
22.04.2018 10:00:00 19,0 12,0 11 6 WSW 10
22.04.2018 09:00:00 16,0 12,0 8 4 WSW 10
22.04.2018 08:00:00 13,0 11,0 9 5 S 10
22.04.2018 07:00:00 11,0 10,0 4 2 W 10
22.04.2018 06:00:00 11,0 10,0 4 2 SSW 8
22.04.2018 05:00:00 12,0 10,0 0 0 N 10
22.04.2018 04:00:00 12,0 10,0 0 0 N 10
22.04.2018 03:00:00 13,0 11,0 4 2 - 10
22.04.2018 02:00:00 14,0 11,0 0 0 N 10
22.04.2018 01:00:00 15,0 12,0 4 2 - 10
22.04.2018 00:00:00 16,0 12,0 4 2 NNE 10
21.04.2018 23:00:00 17,0 11,0 5 3 NE 10
21.04.2018 22:00:00 20,0 10,0 8 4 ENE 10
21.04.2018 21:00:00 22,0 9,0 11 6 NNE 10
21.04.2018 20:00:00 26,0 8,0 8 4 NNE 10
21.04.2018 19:00:00 27,0 8,0 8 4 NNE 10
21.04.2018 18:00:00 28,0 8,0 9 5 N 10
21.04.2018 17:00:00 28,0 8,0 8 4 NNE 10
21.04.2018 16:00:00 27,0 8,0 11 6 NNW 10
21.04.2018 15:00:00 27,0 9,0 11 6 N 10
21.04.2018 14:00:00 25,0 11,0 5 3 NNW 10
21.04.2018 13:00:00 24,0 10,0 4 2 - 10
21.04.2018 12:00:00 22,0 10,0 5 3 NNW 10
21.04.2018 11:00:00 21,0 11,0 5 3 N 10
21.04.2018 10:00:00 18,0 10,0 9 5 SW 10
21.04.2018 09:00:00 15,0 10,0 8 4 SSW 10
21.04.2018 08:00:00 11,0 9,0 8 4 SSW 10
21.04.2018 07:00:00 9,0 8,0 0 0 N 10
21.04.2018 06:00:00 10,0 8,0 4 2 NE 10
21.04.2018 05:00:00 9,0 7,0 0 0 N 10
21.04.2018 04:00:00 10,0 8,0 2 1 - 10
21.04.2018 03:00:00 11,0 9,0 4 2 SSW 10
21.04.2018 02:00:00 13,0 10,0 2 1 S 10
21.04.2018 01:00:00 13,0 11,0 0 0 N 10
21.04.2018 00:00:00 14,0 9,0 4 2 SE 10
20.04.2018 23:00:00 16,0 9,0 2 1 - 10
20.04.2018 22:00:00 17,0 9,0 0 0 N 10
20.04.2018 21:00:00 20,0 8,0 0 0 N 10
20.04.2018 20:00:00 24,0 6,0 0 0 N 10
20.04.2018 19:00:00 27,0 3,0 4 2 - 10
20.04.2018 18:00:00 27,0 3,0 5 3 NNW 10
20.04.2018 17:00:00 27,0 7,0 8 4 NNE 10
20.04.2018 16:00:00 26,0 8,0 5 3 - 10
20.04.2018 15:00:00 26,0 9,0 5 3 - 10
20.04.2018 14:00:00 24,0 9,0 8 4 NW 10
20.04.2018 13:00:00 23,0 9,0 5 3 - 10
20.04.2018 12:00:00 21,0 9,0 5 3 - 10
20.04.2018 11:00:00 20,0 9,0 8 4 SSW 10
20.04.2018 10:00:00 17,0 9,0 4 2 - 10
20.04.2018 09:00:00 15,0 8,0 2 1 - 10
20.04.2018 08:00:00 11,0 8,0 4 2 SSW 10
20.04.2018 07:00:00 9,0 8,0 0 0 N 10
20.04.2018 06:00:00 9,0 7,0 0 0 N 10
20.04.2018 05:00:00 10,0 8,0 0 0 N 10
20.04.2018 04:00:00 - - - - - -
20.04.2018 03:00:00 - - - - - -
20.04.2018 02:00:00 - - - - - -
20.04.2018 01:00:00 - - - - - -
20.04.2018 00:00:00 16,0 8,0 9 5 NNE 10
19.04.2018 23:00:00 17,0 9,0 13 7 NNE 10
19.04.2018 22:00:00 21,0 6,0 5 3 NE 10
19.04.2018 21:00:00 22,0 7,0 11 6 E 10
19.04.2018 20:00:00 24,0 7,0 13 7 NE 10
19.04.2018 19:00:00 27,0 6,0 15 8 NNE 10
19.04.2018 18:00:00 28,0 6,0 15 8 N 10
19.04.2018 17:00:00 28,0 7,0 8 4 N 10
19.04.2018 16:00:00 28,0 7,0 4 2 - 10
19.04.2018 15:00:00 27,0 9,0 8 4 - 10
19.04.2018 14:00:00 25,0 8,0 5 3 - 10
19.04.2018 13:00:00 24,0 10,0 4 2 - 10
19.04.2018 12:00:00 21,0 11,0 4 2 - 10
19.04.2018 11:00:00 21,0 10,0 2 1 - 10
19.04.2018 10:00:00 18,0 10,0 4 2 - 10
19.04.2018 09:00:00 15,0 9,0 9 5 NE 10
19.04.2018 08:00:00 13,0 8,0 16 9 NE 10
19.04.2018 07:00:00 12,0 7,0 16 9 NNE 10
19.04.2018 06:00:00 11,0 7,0 13 7 NNE 10
19.04.2018 05:00:00 13,0 7,0 18 10 NE 10
19.04.2018 04:00:00 - - - - - -
19.04.2018 03:00:00 13,0 8,0 5 3 NE 10
19.04.2018 02:00:00 13,0 7,0 5 3 NNE 10
19.04.2018 01:00:00 16,0 7,0 5 3 NNE 10
19.04.2018 00:00:00 15,0 8,0 5 3 NNW 10
18.04.2018 23:00:00 17,0 7,0 5 3 N 10
18.04.2018 22:00:00 18,0 7,0 8 4 NNE 10
18.04.2018 21:00:00 21,0 6,0 13 7 NE 10
18.04.2018 20:00:00 22,0 7,0 15 8 NE 10
18.04.2018 19:00:00 25,0 5,0 22 12 NE 10
18.04.2018 18:00:00 26,0 5,0 28 15 NE 10
18.04.2018 17:00:00 26,0 6,0 29 16 NE 10
18.04.2018 16:00:00 26,0 6,0 22 12 ENE 10
18.04.2018 15:00:00 26,0 4,0 22 12 NE 10
18.04.2018 14:00:00 25,0 5,0 18 10 NNE 10
18.04.2018 13:00:00 23,0 11,0 18 10 N 10
18.04.2018 12:00:00 20,0 12,0 9 5 N 10
18.04.2018 11:00:00 17,0 10,0 16 9 NNE 10
18.04.2018 10:00:00 16,0 9,0 13 7 NNE 10
18.04.2018 09:00:00 14,0 9,0 11 6 NNE 10
18.04.2018 08:00:00 10,0 9,0 5 3 N 10
18.04.2018 07:00:00 8,0 7,0 4 2 - 8
18.04.2018 06:00:00 8,0 7,0 0 0 N 10
18.04.2018 05:00:00 9,0 7,0 0 0 N 10
18.04.2018 04:00:00 11,0 8,0 2 1 SSE 10
18.04.2018 03:00:00 12,0 8,0 4 2 - 10
18.04.2018 02:00:00 13,0 8,0 0 0 N 10
18.04.2018 01:00:00 12,0 8,0 8 4 NNE 10
18.04.2018 00:00:00 14,0 9,0 4 2 NE 10
17.04.2018 23:00:00 15,0 8,0 5 3 NNE 10
17.04.2018 22:00:00 16,0 8,0 5 3 E 10
17.04.2018 21:00:00 18,0 8,0 9 5 NNE 10
17.04.2018 20:00:00 21,0 7,0 9 5 N 10
17.04.2018 19:00:00 22,0 7,0 11 6 NNE 10
17.04.2018 18:00:00 23,0 8,0 11 6 N 10
17.04.2018 17:00:00 23,0 7,0 11 6 N 10
17.04.2018 16:00:00 23,0 6,0 4 2 - 10
17.04.2018 15:00:00 22,0 7,0 8 4 - 10
17.04.2018 14:00:00 22,0 7,0 4 2 - 10
17.04.2018 13:00:00 21,0 8,0 8 4 - 10
17.04.2018 12:00:00 18,0 9,0 8 4 N 10
17.04.2018 11:00:00 16,0 8,0 4 2 - 10
17.04.2018 10:00:00 14,0 8,0 4 2 - 10
17.04.2018 09:00:00 12,0 8,0 5 3 SSE 10
17.04.2018 08:00:00 9,0 7,0 2 1 - 10
17.04.2018 07:00:00 6,0 6,0 0 0 N 10
17.04.2018 06:00:00 7,0 6,0 0 0 N 10
17.04.2018 05:00:00 8,0 7,0 2 1 S 10
17.04.2018 04:00:00 9,0 7,0 2 1 - 10

tt = Température de l'air
td = dewpoint
ff = Vitesse du vent
dd = Direction du vent
vv = visibility

stations d'obs. à proximité